createdAt,value
2023-01-19T00:00:52.467Z,97522.50
2023-01-19T00:03:19.146Z,97521.44
2023-01-19T00:05:45.802Z,97524.31
2023-01-19T00:08:15.707Z,97525.19
2023-01-19T00:10:45.114Z,97522.03
2023-01-19T00:13:12.327Z,97522.03
2023-01-19T00:15:39.252Z,97514.69
2023-01-19T00:18:06.658Z,97517.06
2023-01-19T00:20:35.557Z,97519.94
2023-01-19T00:23:03.438Z,97516.78
2023-01-19T00:25:30.157Z,97516.19
2023-01-19T00:27:57.185Z,97516.00
2023-01-19T00:30:30.504Z,97527.09
2023-01-19T00:32:57.237Z,97523.69
2023-01-19T00:35:23.936Z,97539.00
2023-01-19T00:37:50.675Z,97534.78
2023-01-19T00:40:18.056Z,97540.34
2023-01-19T00:42:44.781Z,97548.75
2023-01-19T00:45:15.778Z,97546.81
2023-01-19T00:47:42.531Z,97546.56
2023-01-19T00:50:13.719Z,97543.19
2023-01-19T00:52:41.714Z,97544.16
2023-01-19T00:55:11.247Z,97545.63
2023-01-19T00:57:39.442Z,97545.06
2023-01-19T01:00:11.567Z,97547.38
2023-01-19T01:02:41.858Z,97554.59
2023-01-19T01:05:11.747Z,97557.34
2023-01-19T01:07:41.157Z,97546.25
2023-01-19T01:10:14.680Z,97554.84
2023-01-19T01:12:55.548Z,97547.59
2023-01-19T01:15:29.771Z,97545.66
2023-01-19T01:17:56.483Z,97554.41
2023-01-19T01:20:28.524Z,97559.91
2023-01-19T01:22:56.896Z,97561.22
2023-01-19T01:25:26.923Z,97562.38
2023-01-19T01:27:54.641Z,97564.69
2023-01-19T01:30:22.080Z,97571.41
2023-01-19T01:32:48.996Z,97570.03
2023-01-19T01:35:16.658Z,97582.03
2023-01-19T01:37:43.351Z,97581.13
2023-01-19T01:40:14.106Z,97583.59
2023-01-19T01:42:42.495Z,97583.59
2023-01-19T01:45:38.170Z,97588.53
2023-01-19T01:48:22.231Z,97584.00
2023-01-19T01:51:13.662Z,97584.47
2023-01-19T01:53:41.765Z,97590.16
2023-01-19T01:56:14.778Z,97588.75
2023-01-19T01:58:41.789Z,97591.13
2023-01-19T02:01:29.238Z,97589.78
2023-01-19T02:03:57.910Z,97590.81
2023-01-19T02:06:25.309Z,97583.19
2023-01-19T02:09:23.553Z,97587.44
2023-01-19T02:12:09.914Z,97576.84
2023-01-19T02:14:39.443Z,97573.72
2023-01-19T02:17:06.845Z,97580.19
2023-01-19T02:19:41.322Z,97581.50
2023-01-19T02:22:30.282Z,97580.00
2023-01-19T02:24:57.237Z,97575.78
2023-01-19T02:27:23.869Z,97578.94
2023-01-19T02:29:50.503Z,97571.88
2023-01-19T02:32:17.363Z,97566.06
2023-01-19T02:34:43.971Z,97564.00
2023-01-19T02:37:13.588Z,97559.28
2023-01-19T02:39:56.798Z,97556.06
2023-01-19T02:42:32.322Z,97558.88
2023-01-19T02:44:59.779Z,97561.69
2023-01-19T02:47:26.509Z,97564.88
2023-01-19T02:50:00.493Z,97554.25
2023-01-19T02:52:28.153Z,97556.50
2023-01-19T02:55:19.270Z,97561.72
2023-01-19T02:58:15.923Z,97563.22
2023-01-19T03:01:04.636Z,97556.69
2023-01-19T03:03:42.404Z,97557.31
2023-01-19T03:06:24.337Z,97561.44
2023-01-19T03:09:33.825Z,97561.44
2023-01-19T03:12:14.657Z,97556.53
2023-01-19T03:14:47.971Z,97555.09
2023-01-19T03:17:17.914Z,97548.47
2023-01-19T03:19:48.602Z,97554.34
2023-01-19T03:22:29.246Z,97553.16
2023-01-19T03:25:00.536Z,97550.78
2023-01-19T03:27:35.537Z,97553.22
2023-01-19T03:30:14.922Z,97545.03
2023-01-19T03:33:04.966Z,97548.19
2023-01-19T03:35:35.716Z,97547.91
2023-01-19T03:38:12.176Z,97543.03
2023-01-19T03:40:39.631Z,97544.59
2023-01-19T03:43:06.969Z,97547.00
2023-01-19T03:45:37.038Z,97549.56
2023-01-19T03:48:05.037Z,97552.06
2023-01-19T03:50:33.983Z,97546.50
2023-01-19T03:53:12.591Z,97550.25
2023-01-19T03:55:42.768Z,97548.06
2023-01-19T03:58:10.054Z,97549.84
2023-01-19T04:00:37.282Z,97554.66
2023-01-19T04:03:05.726Z,97550.47
2023-01-19T04:05:33.003Z,97546.53
2023-01-19T04:08:00.115Z,97546.25
2023-01-19T04:10:26.740Z,97555.84
2023-01-19T04:13:01.454Z,97551.50
2023-01-19T04:15:30.516Z,97541.16
2023-01-19T04:17:58.811Z,97540.53
2023-01-19T04:20:27.967Z,97541.22
2023-01-19T04:22:59.502Z,97541.50
2023-01-19T04:25:27.600Z,97548.88
2023-01-19T04:27:55.132Z,97549.88
2023-01-19T04:30:22.487Z,97553.31
2023-01-19T04:32:49.525Z,97554.00
2023-01-19T04:35:16.934Z,97554.13
2023-01-19T04:37:44.854Z,97555.25
2023-01-19T04:40:12.073Z,97547.44
2023-01-19T04:42:38.948Z,97547.59
2023-01-19T04:45:06.102Z,97554.13
2023-01-19T04:47:32.707Z,97553.56
2023-01-19T04:49:59.275Z,97560.09
2023-01-19T04:52:34.760Z,97559.31
2023-01-19T04:55:03.922Z,97556.03
2023-01-19T04:57:31.108Z,97562.75
2023-01-19T04:59:58.594Z,97556.91
2023-01-19T05:02:25.857Z,97565.75
2023-01-19T05:04:53.147Z,97563.50
2023-01-19T05:07:19.852Z,97569.84
2023-01-19T05:09:46.444Z,97563.66
2023-01-19T05:12:13.029Z,97571.28
2023-01-19T05:14:39.631Z,97570.81
2023-01-19T05:17:06.376Z,97568.28
2023-01-19T05:19:32.970Z,97577.31
2023-01-19T05:21:59.596Z,97576.25
2023-01-19T05:24:26.227Z,97570.53
2023-01-19T05:26:52.809Z,97572.44
2023-01-19T05:29:19.432Z,97572.38
2023-01-19T05:31:46.225Z,97579.50
2023-01-19T05:34:15.178Z,97587.31
2023-01-19T05:36:42.659Z,97592.03
2023-01-19T05:39:09.685Z,97580.34
2023-01-19T05:41:39.291Z,97590.72
2023-01-19T05:44:05.878Z,97593.25
2023-01-19T05:46:34.591Z,97591.16
2023-01-19T05:49:04.076Z,97600.16
2023-01-19T05:51:35.066Z,97598.50
2023-01-19T05:54:01.932Z,97594.47
2023-01-19T05:56:28.973Z,97598.06
2023-01-19T05:58:55.625Z,97601.88
2023-01-19T06:01:22.432Z,97604.84
2023-01-19T06:03:49.052Z,97609.72
2023-01-19T06:06:15.791Z,97613.25
2023-01-19T06:08:42.499Z,97616.84
2023-01-19T06:11:09.191Z,97621.97
2023-01-19T06:13:35.919Z,97629.16
2023-01-19T06:16:05.892Z,97630.91
2023-01-19T06:18:32.859Z,97628.88
2023-01-19T06:21:03.188Z,97634.44
2023-01-19T06:23:32.713Z,97632.09
2023-01-19T06:25:59.525Z,97638.56
2023-01-19T06:28:32.717Z,97630.91
2023-01-19T06:30:59.348Z,97634.25
2023-01-19T06:33:28.615Z,97636.34
2023-01-19T06:35:55.868Z,97635.38
2023-01-19T06:38:23.046Z,97628.00
2023-01-19T06:40:58.737Z,97633.84
2023-01-19T06:43:26.642Z,97636.16
2023-01-19T06:45:53.406Z,97641.09
2023-01-19T06:48:20.716Z,97640.66
2023-01-19T06:50:48.180Z,97638.06
2023-01-19T06:53:16.837Z,97640.59
2023-01-19T06:55:44.128Z,97647.13
2023-01-19T06:58:11.598Z,97647.13
2023-01-19T07:00:38.743Z,97648.94
2023-01-19T07:03:09.334Z,97645.66
2023-01-19T07:05:36.624Z,97648.44
2023-01-19T07:08:03.862Z,97644.00
2023-01-19T07:11:25.536Z,97648.53
2023-01-19T07:13:17.235Z,97639.53
2023-01-19T07:15:45.804Z,97646.88
2023-01-19T07:18:12.442Z,97640.84
2023-01-19T07:20:39.056Z,97637.50
2023-01-19T07:23:05.725Z,97634.03
2023-01-19T07:25:32.489Z,97627.59
2023-01-19T07:28:02.372Z,97637.97
2023-01-19T07:30:29.750Z,97640.88
2023-01-19T07:32:57.952Z,97639.63
2023-01-19T07:35:27.132Z,97642.50
2023-01-19T07:37:53.764Z,97647.00
2023-01-19T07:40:21.113Z,97651.81
2023-01-19T07:42:50.559Z,97647.31
2023-01-19T07:45:19.219Z,97649.13
2023-01-19T07:47:48.789Z,97653.63
2023-01-19T07:50:17.503Z,97648.00
2023-01-19T07:52:44.656Z,97649.88
2023-01-19T07:55:11.306Z,97654.38
2023-01-19T07:57:37.935Z,97659.03
2023-01-19T08:00:05.550Z,97656.72
2023-01-19T08:02:33.973Z,97659.88
2023-01-19T08:05:00.623Z,97659.03
2023-01-19T08:07:27.355Z,97669.53
2023-01-19T08:09:54.119Z,97672.75
2023-01-19T08:12:20.699Z,97669.22
2023-01-19T08:14:47.287Z,97670.50
2023-01-19T08:17:14.093Z,97677.75
2023-01-19T08:19:43.929Z,97683.91
2023-01-19T08:22:10.610Z,97678.28
2023-01-19T08:24:37.230Z,97676.66
2023-01-19T08:27:03.997Z,97671.75
2023-01-19T08:29:31.744Z,97679.97
2023-01-19T08:32:00.057Z,97680.13
2023-01-19T08:34:27.120Z,97675.25
2023-01-19T08:36:54.127Z,97675.88
2023-01-19T08:39:21.084Z,97681.84
2023-01-19T08:41:47.698Z,97680.63
2023-01-19T08:44:14.431Z,97697.25
2023-01-19T08:46:41.370Z,97688.69
2023-01-19T08:49:08.584Z,97688.38
2023-01-19T08:51:35.372Z,97699.56
2023-01-19T08:54:02.098Z,97696.72
2023-01-19T08:56:28.688Z,97697.13
2023-01-19T08:59:08.175Z,97702.91
2023-01-19T09:01:36.903Z,97700.81
2023-01-19T09:04:03.838Z,97705.91
2023-01-19T09:06:30.465Z,97700.22
2023-01-19T09:08:57.584Z,97702.91
2023-01-19T09:11:24.288Z,97700.75
2023-01-19T09:13:51.046Z,97705.84
2023-01-19T09:16:17.889Z,97710.53
2023-01-19T09:18:45.834Z,97702.31
2023-01-19T09:21:13.713Z,97702.72
2023-01-19T09:23:40.568Z,97700.19
2023-01-19T09:26:07.481Z,97703.44
2023-01-19T09:28:34.388Z,97705.59
2023-01-19T09:31:09.613Z,97715.41
2023-01-19T09:33:36.343Z,97712.91
2023-01-19T09:36:03.303Z,97710.97
2023-01-19T09:38:32.983Z,97721.81
2023-01-19T09:41:00.863Z,97717.09
2023-01-19T09:43:47.887Z,97711.66
2023-01-19T09:46:25.331Z,97715.03
2023-01-19T09:48:57.592Z,97718.47
2023-01-19T09:51:27.046Z,97721.50
2023-01-19T09:54:16.922Z,97719.91
2023-01-19T09:56:46.564Z,97725.56
2023-01-19T09:59:25.451Z,97723.28
2023-01-19T10:02:42.048Z,97731.84
2023-01-19T10:05:33.068Z,97728.88
2023-01-19T10:08:27.766Z,97720.34
2023-01-19T10:10:57.314Z,97723.19
2023-01-19T10:13:32.593Z,97725.78
2023-01-19T10:16:50.514Z,97725.66
2023-01-19T10:19:39.972Z,97724.66
2023-01-19T10:22:25.803Z,97724.53
2023-01-19T10:25:07.342Z,97719.13
2023-01-19T10:27:35.506Z,97724.91
2023-01-19T10:30:02.689Z,97728.56
2023-01-19T10:32:36.562Z,97723.00
2023-01-19T10:35:21.859Z,97725.25
2023-01-19T10:37:48.807Z,97725.88
2023-01-19T10:40:39.170Z,97723.50
2023-01-19T10:43:33.877Z,97729.38
2023-01-19T10:46:05.065Z,97719.56
2023-01-19T10:48:42.331Z,97722.03
2023-01-19T10:51:10.869Z,97725.19
2023-01-19T10:53:37.958Z,97716.88
2023-01-19T10:56:25.990Z,97715.78
2023-01-19T10:58:52.754Z,97717.31
2023-01-19T11:01:24.776Z,97718.34
2023-01-19T11:03:56.918Z,97722.31
2023-01-19T11:06:28.103Z,97717.16
2023-01-19T11:09:15.059Z,97729.03
2023-01-19T11:11:49.265Z,97724.53
2023-01-19T11:14:23.703Z,97732.44
2023-01-19T11:16:56.501Z,97729.38
2023-01-19T11:19:30.720Z,97734.44
2023-01-19T11:22:21.385Z,97730.66
2023-01-19T11:24:49.200Z,97726.81
2023-01-19T11:27:21.501Z,97733.47
2023-01-19T11:30:09.581Z,97726.66
2023-01-19T11:32:37.105Z,97733.84
2023-01-19T11:35:40.762Z,97724.84
2023-01-19T11:38:16.855Z,97723.72
2023-01-19T11:40:55.022Z,97727.53
2023-01-19T11:43:39.799Z,97732.81
2023-01-19T11:46:16.353Z,97726.84
2023-01-19T11:48:56.536Z,97726.44
2023-01-19T11:51:30.697Z,97725.28
2023-01-19T11:53:57.417Z,97727.53
2023-01-19T11:56:28.829Z,97720.16
2023-01-19T11:58:56.269Z,97724.13
2023-01-19T12:01:34.047Z,97725.59
2023-01-19T12:04:26.015Z,97728.78
2023-01-19T12:06:55.491Z,97729.25
2023-01-19T12:09:25.984Z,97722.94
2023-01-19T12:12:04.663Z,97725.84
2023-01-19T12:14:50.462Z,97729.50
2023-01-19T12:17:30.467Z,97730.81
2023-01-19T12:20:06.246Z,97728.78
2023-01-19T12:22:42.765Z,97728.84
2023-01-19T12:25:49.359Z,97736.78
2023-01-19T12:28:27.743Z,97727.53
2023-01-19T12:30:55.337Z,97728.69
2023-01-19T12:33:25.734Z,97731.94
2023-01-19T12:36:09.673Z,97717.91
2023-01-19T12:38:56.617Z,97732.63
2023-01-19T12:41:36.310Z,97728.84
2023-01-19T12:44:11.905Z,97734.84
2023-01-19T12:46:54.887Z,97729.19
2023-01-19T12:49:38.724Z,97728.53
2023-01-19T12:52:19.953Z,97729.31
2023-01-19T12:55:13.963Z,97736.03
2023-01-19T12:58:21.980Z,97729.56
2023-01-19T13:00:51.736Z,97733.78
2023-01-19T13:03:18.313Z,97738.94
2023-01-19T13:05:44.844Z,97742.34
2023-01-19T13:08:12.372Z,97748.75
2023-01-19T13:11:05.288Z,97745.84
2023-01-19T13:13:37.674Z,97746.16
2023-01-19T13:16:19.816Z,97738.22
2023-01-19T13:18:55.538Z,97743.84
2023-01-19T13:21:44.662Z,97747.22
2023-01-19T13:24:17.694Z,97739.84
2023-01-19T13:26:50.511Z,97740.97
2023-01-19T13:29:34.236Z,97742.63
2023-01-19T13:32:13.439Z,97740.84
2023-01-19T13:34:44.750Z,97739.56
2023-01-19T13:37:20.635Z,97747.75
2023-01-19T13:39:50.075Z,97741.41
2023-01-19T13:42:28.743Z,97742.13
2023-01-19T13:45:00.051Z,97745.84
2023-01-19T13:47:42.218Z,97753.34
2023-01-19T13:50:21.654Z,97742.88
2023-01-19T13:52:53.686Z,97751.41
2023-01-19T13:55:21.157Z,97757.25
2023-01-19T13:57:50.051Z,97757.78
2023-01-19T14:00:45.672Z,97763.81
2023-01-19T14:03:15.174Z,97761.44
2023-01-19T14:05:44.302Z,97768.63
2023-01-19T14:08:11.239Z,97769.00
2023-01-19T14:10:59.955Z,97777.91
2023-01-19T14:13:43.077Z,97769.78
2023-01-19T14:16:17.162Z,97779.81
2023-01-19T14:18:43.891Z,97782.38
2023-01-19T14:21:13.665Z,97783.56
2023-01-19T14:23:50.759Z,97781.75
2023-01-19T14:26:48.613Z,97790.59
2023-01-19T14:29:27.119Z,97788.50
2023-01-19T14:32:45.081Z,97793.38
2023-01-19T14:35:24.198Z,97794.06
2023-01-19T14:37:52.076Z,97790.28
2023-01-19T14:40:24.255Z,97794.25
2023-01-19T14:43:02.967Z,97792.53
2023-01-19T14:45:41.176Z,97794.97
2023-01-19T14:48:18.175Z,97797.78
2023-01-19T14:51:02.854Z,97799.06
2023-01-19T14:53:38.915Z,97806.66
2023-01-19T14:56:06.709Z,97803.63
2023-01-19T14:58:35.566Z,97800.13
2023-01-19T15:01:03.228Z,97807.03
2023-01-19T15:03:43.610Z,97811.19
2023-01-19T15:06:20.476Z,97807.78
2023-01-19T15:08:49.865Z,97815.56
2023-01-19T15:11:33.554Z,97811.03
2023-01-19T15:14:01.802Z,97814.06
2023-01-19T15:16:32.091Z,97815.72
2023-01-19T15:19:01.022Z,97828.16
2023-01-19T15:21:27.633Z,97822.59
2023-01-19T15:23:55.447Z,97825.16
2023-01-19T15:26:25.601Z,97826.16
2023-01-19T15:28:52.701Z,97832.28
2023-01-19T15:31:22.812Z,97827.19
2023-01-19T15:33:49.843Z,97830.00
2023-01-19T15:36:22.120Z,97832.88
2023-01-19T15:38:50.830Z,97839.97
2023-01-19T15:41:29.746Z,97838.47
2023-01-19T15:43:56.580Z,97847.34
2023-01-19T15:46:25.053Z,97846.59
2023-01-19T15:48:52.975Z,97841.44
2023-01-19T15:51:27.589Z,97844.09
2023-01-19T15:53:55.584Z,97833.97
2023-01-19T15:56:28.755Z,97843.81
2023-01-19T15:58:58.413Z,97841.75
2023-01-19T16:01:34.672Z,97838.78
2023-01-19T16:04:04.049Z,97850.03
2023-01-19T16:06:32.083Z,97853.13
2023-01-19T16:09:00.934Z,97851.63
2023-01-19T16:11:33.059Z,97854.34
2023-01-19T16:14:00.289Z,97859.78
2023-01-19T16:16:27.958Z,97865.22
2023-01-19T16:18:55.629Z,97859.47
2023-01-19T16:21:22.420Z,97863.75
2023-01-19T16:23:49.360Z,97865.38
2023-01-19T16:26:36.492Z,97872.91
2023-01-19T16:29:10.710Z,97874.75
2023-01-19T16:31:40.387Z,97874.41
2023-01-19T16:34:08.446Z,97872.25
2023-01-19T16:36:38.169Z,97882.28
2023-01-19T16:39:10.472Z,97869.19
2023-01-19T16:41:37.668Z,97872.53
2023-01-19T16:44:04.929Z,97879.50
2023-01-19T16:46:39.374Z,97878.63
2023-01-19T16:49:12.230Z,97876.16
2023-01-19T16:51:38.975Z,97884.25
2023-01-19T16:54:06.025Z,97884.66
2023-01-19T16:56:33.920Z,97892.03
2023-01-19T16:59:00.606Z,97887.34
2023-01-19T17:01:29.122Z,97888.44
2023-01-19T17:03:56.346Z,97892.59
2023-01-19T17:06:24.044Z,97893.19
2023-01-19T17:08:51.997Z,97900.97
2023-01-19T17:11:25.568Z,97896.63
2023-01-19T17:14:02.090Z,97904.88
2023-01-19T17:16:32.281Z,97902.41
2023-01-19T17:19:02.416Z,97894.28
2023-01-19T17:21:31.396Z,97890.13
2023-01-19T17:23:59.112Z,97901.03
2023-01-19T17:26:28.250Z,97901.22
2023-01-19T17:29:07.159Z,97901.47
2023-01-19T17:31:34.344Z,97904.84
2023-01-19T17:34:01.779Z,97907.03
2023-01-19T17:36:30.771Z,97902.72
2023-01-19T17:39:00.132Z,97897.41
2023-01-19T17:41:29.883Z,97907.97
2023-01-19T17:43:57.830Z,97910.88
2023-01-19T17:46:26.885Z,97909.22
2023-01-19T17:49:01.615Z,97910.03
2023-01-19T17:51:29.517Z,97908.06
2023-01-19T17:53:56.824Z,97918.84
2023-01-19T17:56:29.291Z,97918.56
2023-01-19T17:58:59.381Z,97919.13
2023-01-19T18:01:29.772Z,97928.53
2023-01-19T18:03:57.715Z,97925.88
2023-01-19T18:06:24.536Z,97935.03
2023-01-19T18:08:51.230Z,97936.69
2023-01-19T18:11:20.151Z,97925.16
2023-01-19T18:13:49.047Z,97931.66
2023-01-19T18:16:28.702Z,97935.59
2023-01-19T18:18:56.518Z,97931.84
2023-01-19T18:21:24.917Z,97928.75
2023-01-19T18:23:51.640Z,97927.50
2023-01-19T18:26:21.151Z,97930.47
2023-01-19T18:28:48.644Z,97931.56
2023-01-19T18:31:18.541Z,97933.34
2023-01-19T18:33:47.013Z,97921.03
2023-01-19T18:36:14.950Z,97930.28
2023-01-19T18:38:41.887Z,97934.22
2023-01-19T18:41:15.439Z,97927.97
2023-01-19T18:43:42.933Z,97925.13
2023-01-19T18:46:10.661Z,97930.75
2023-01-19T18:48:39.251Z,97926.69
2023-01-19T18:51:11.849Z,97922.19
2023-01-19T18:53:38.835Z,97933.56
2023-01-19T18:56:06.984Z,97927.06
2023-01-19T18:58:36.966Z,97930.75
2023-01-19T19:01:04.056Z,97941.50
2023-01-19T19:03:31.215Z,97935.41
2023-01-19T19:06:03.350Z,97937.75
2023-01-19T19:08:33.655Z,97933.03
2023-01-19T19:11:02.411Z,97939.13
2023-01-19T19:13:28.976Z,97942.34
2023-01-19T19:16:06.714Z,97938.94
2023-01-19T19:18:35.551Z,97944.28
2023-01-19T19:21:10.943Z,97939.34
2023-01-19T19:23:40.007Z,97942.25
2023-01-19T19:26:10.318Z,97939.56
2023-01-19T19:28:38.786Z,97937.19
2023-01-19T19:31:16.647Z,97945.06
2023-01-19T19:33:43.477Z,97946.84
2023-01-19T19:36:11.699Z,97949.03
2023-01-19T19:38:40.840Z,97944.06
2023-01-19T19:41:11.735Z,97954.81
2023-01-19T19:43:39.458Z,97948.59
2023-01-19T19:46:11.851Z,97953.22
2023-01-19T19:48:39.614Z,97957.59
2023-01-19T19:51:22.596Z,97957.16
2023-01-19T19:53:51.764Z,97959.75
2023-01-19T19:56:21.698Z,97965.88
2023-01-19T19:58:50.118Z,97967.69
2023-01-19T20:01:21.071Z,97956.09
2023-01-19T20:03:48.874Z,97961.66
2023-01-19T20:06:22.024Z,97961.25
2023-01-19T20:08:50.569Z,97964.56
2023-01-19T20:11:27.405Z,97967.06
2023-01-19T20:13:54.838Z,97972.09
2023-01-19T20:16:23.037Z,97969.53
2023-01-19T20:18:53.917Z,97971.56
2023-01-19T20:21:32.543Z,97975.84
2023-01-19T20:24:05.969Z,97979.72
2023-01-19T20:26:35.968Z,97986.16
2023-01-19T20:29:06.690Z,97985.09
2023-01-19T20:31:36.995Z,97992.66
2023-01-19T20:34:07.765Z,98000.53
2023-01-19T20:36:35.238Z,97999.00
2023-01-19T20:39:08.279Z,97996.53
2023-01-19T20:41:43.026Z,98003.19
2023-01-19T20:44:11.892Z,97996.88
2023-01-19T20:46:38.696Z,98001.56
2023-01-19T20:49:06.248Z,97999.53
2023-01-19T20:51:34.849Z,98005.19
2023-01-19T20:54:01.513Z,98002.25
2023-01-19T20:56:28.086Z,98008.03
2023-01-19T20:58:54.717Z,98004.63
2023-01-19T21:01:24.992Z,98015.91
2023-01-19T21:03:52.201Z,98020.50
2023-01-19T21:06:20.982Z,98020.38
2023-01-19T21:08:51.458Z,98027.34
2023-01-19T21:11:20.878Z,98024.66
2023-01-19T21:13:49.003Z,98033.13
2023-01-19T21:16:15.946Z,98039.84
2023-01-19T21:18:42.898Z,98037.06
2023-01-19T21:21:20.895Z,98038.97
2023-01-19T21:24:02.727Z,98040.84
2023-01-19T21:26:30.828Z,98043.56
2023-01-19T21:28:58.738Z,98047.75
2023-01-19T21:31:27.529Z,98053.94
2023-01-19T21:33:54.613Z,98048.81
2023-01-19T21:36:22.397Z,98047.47
2023-01-19T21:38:51.227Z,98051.78
2023-01-19T21:41:18.548Z,98062.09
2023-01-19T21:43:48.352Z,98065.81
2023-01-19T21:46:21.529Z,98071.97
2023-01-19T21:48:48.331Z,98065.88
2023-01-19T21:51:15.820Z,98072.53
2023-01-19T21:53:43.094Z,98069.13
2023-01-19T21:56:10.959Z,98073.66
2023-01-19T21:58:38.245Z,98073.50
2023-01-19T22:01:13.490Z,98070.72
2023-01-19T22:03:42.022Z,98070.81
2023-01-19T22:06:14.604Z,98075.72
2023-01-19T22:08:41.794Z,98073.22
2023-01-19T22:11:12.684Z,98079.88
2023-01-19T22:13:42.869Z,98078.69
2023-01-19T22:16:13.219Z,98079.56
2023-01-19T22:18:43.661Z,98084.56
2023-01-19T22:21:26.057Z,98086.31
2023-01-19T22:23:55.961Z,98092.22
2023-01-19T22:26:23.349Z,98093.34
2023-01-19T22:28:54.891Z,98089.63
2023-01-19T22:31:22.296Z,98095.31
2023-01-19T22:33:49.996Z,98094.75
2023-01-19T22:36:24.349Z,98099.00
2023-01-19T22:38:59.708Z,98102.75
2023-01-19T22:41:32.647Z,98102.38
2023-01-19T22:44:12.798Z,98103.13
2023-01-19T22:46:39.618Z,98101.97
2023-01-19T22:49:07.805Z,98106.00
2023-01-19T22:51:35.111Z,98109.31
2023-01-19T22:54:03.931Z,98096.34
2023-01-19T22:56:33.229Z,98106.41
2023-01-19T22:59:00.372Z,98101.91
2023-01-19T23:01:34.193Z,98106.16
2023-01-19T23:04:02.417Z,98110.53
2023-01-19T23:06:32.434Z,98111.72
2023-01-19T23:09:01.928Z,98119.75
2023-01-19T23:11:38.517Z,98113.22
2023-01-19T23:14:07.316Z,98110.47
2023-01-19T23:16:34.961Z,98126.09
2023-01-19T23:19:01.958Z,98119.28
2023-01-19T23:21:30.280Z,98137.91
2023-01-19T23:24:00.723Z,98122.84
2023-01-19T23:26:30.668Z,98127.41
2023-01-19T23:29:00.766Z,98128.22
2023-01-19T23:31:31.848Z,98132.75
2023-01-19T23:34:02.070Z,98135.53
2023-01-19T23:36:32.457Z,98127.38
2023-01-19T23:39:03.101Z,98132.44
2023-01-19T23:41:33.052Z,98142.69
2023-01-19T23:44:00.117Z,98132.91
2023-01-19T23:46:27.034Z,98135.22
2023-01-19T23:48:53.860Z,98133.94
2023-01-19T23:51:26.990Z,98141.59
2023-01-19T23:53:54.335Z,98135.47
2023-01-19T23:56:39.557Z,98136.00
2023-01-19T23:59:10.213Z,98150.63
